Portada
METAR-TAF:

METAR-TAF

Aeropuertos :

Castres, Francia

latitud: 43-33-25N, longitud: 2-17-21E, altitud: 239 m

Observación

El informe se hizo hace 22 minutos, a las 08:00 UTC
Viento 2 kt del oeste
Temperatura 4°C
Humedad 81%
Presión 1032 hPa
Visibilidad 10 km o más
sin nubes por debajo de 1500 m y sin presencia de cumulonimbus.

METAR: LFCK 220800Z AUTO 27002KT CAVOK 04/01 Q1032 NOSIG

Hora: 09:22 (08:22 UTC)

Pronóstico

El informe se hizo hace 3 horas y 22 minutos, a las 05:00 UTC
Pronóstico válido del 22 a las 06 UTC al 22 a las 15 UTC
Viento 3 kt con dirección variable
Visibilidad 10 km o más
sin nubes por debajo de 1500 m y sin presencia de cumulonimbus.
Temporalmente
del 22 a las 12 UTC al 22 a las 15 UTC
Viento 8 kt del oeste-noroeste

TAF: LFCK 220500Z 2206/2215 VRB03KT CAVOK TEMPO 2212/2215 30008KT

Observaciones y pronósticos meteorológicos de más de 4000 aeropuertos (mensajes METAR y TAF).

Los puntos amarillos y rojos representan las estaciones disponibles.

Ponga el ratón en el punto deseado para ver el nombre de la estación.

Haga clic para ver las observaciones y los pronósticos meteorológicos.

Para cambiar el mapa : haga clic en los botones verdes con una cruz de color negro para hacer un zoom, en el botón verde con un guión para alejar o en las flechas verdes para mapas adyacentes.


METAR-TAF: